ADDS METAR Data INFO
IDs: Format: Raw Decoded Include TAF

Data at: 0715 UTC 24 Jun 2018

KFAM 240709Z AUTO 00000KT 2SM BR CLR 19/18 A2990 RMK AO2
KFAM 240656Z AUTO 00000KT 5SM BR CLR 19/18 A2989 RMK AO2 SLP114 T01890183
KFAM 240649Z AUTO 00000KT 4SM BR CLR 19/19 A2989 RMK AO2
KFAM 240639Z AUTO 00000KT 2SM BR CLR 19/18 A2989 RMK AO2
KFAM 240617Z AUTO 00000KT 7SM FEW002 19/19 A2989 RMK AO2
KFAM 240607Z AUTO 00000KT 1 1/4SM BR SCT002 19/19 A2989 RMK AO2 VIS 1/2V5
KFAM 240605Z AUTO 00000KT 3/4SM BR VV002 19/19 A2988 RMK AO2 VIS 1/2V5
KFAM 240556Z AUTO 00000KT 1/4SM FG VV002 19/19 A2988 RMK AO2 SLP109 T01940189 10256 20194 402940167 50008
KFAM 240553Z AUTO 00000KT 1/2SM FG VV002 19/19 A2988 RMK AO2 402940167
KFAM 240551Z AUTO 00000KT 1SM BR VV002 19/19 A2988 RMK AO2 402940167
KFAM 240545Z AUTO 00000KT 2 1/2SM BR FEW002 19/19 A2988 RMK AO2 VIS 1/2V5
KFAM 240542Z AUTO 00000KT 1SM BR VV002 19/19 A2988 RMK AO2 VIS 1/4V5
KFAM 240539Z AUTO 00000KT 1/2SM FG VV002 19/19 A2988 RMK AO2
KFAM 240532Z AUTO 00000KT 3/4SM BR VV002 20/19 A2988 RMK AO2
KFAM 240529Z AUTO 00000KT 1 1/2SM BR CLR 20/19 A2988 RMK AO2
KFAM 240456Z AUTO 00000KT 3SM BR CLR 20/19 A2989 RMK AO2 SLP111 T02000194
KFAM 240356Z AUTO 00000KT 10SM CLR 21/20 A2987 RMK AO2 SLP108 T02060200
KFAM 240256Z AUTO 00000KT 10SM CLR 21/20 A2986 RMK AO2 SLP103 T02110200 53012
KFAM 240156Z AUTO 00000KT 10SM CLR 23/21 A2984 RMK AO2 SLP097 T02280206
KFAM 240120Z AUTO 00000KT 10SM FEW001 24/21 A2983 RMK AO2
KFAM 240056Z AUTO 08003KT 10SM CLR 25/21 A2983 RMK AO2 SLP091 T02500211
KFAM 232356Z AUTO 09006KT 10SM FEW001 BKN047 26/22 A2982 RMK AO2 SLP090 60000 T02560217 10294 20250 53001
KFAM 232256Z AUTO 05005KT 10SM SCT048 27/21 A2981 RMK AO2 LTG DSNT SE SLP087 T02670211
KFAM 232156Z AUTO 02005KT 10SM BKN032 BKN045 BKN085 25/21 A2982 RMK AO2 LTG DSNT E TSB33E48RAB38E53 SLP090 P0000 T02500206
KFAM 232154Z AUTO 03005KT 10SM SCT032 BKN045 BKN085 25/21 A2982 RMK AO2 LTG DSNT E TSB33E48RAB38E53 P0000
KFAM 232139Z AUTO 05007KT 10SM VCTS -RA FEW027 SCT039 BKN050 26/21 A2981 RMK AO2 TSB33RAB38 P0000
KFAM 232056Z AUTO 02006KT 10SM FEW041 BKN050 OVC110 27/21 A2980 RMK AO2 SLP082 T02670206 56007
KFAM 231956Z AUTO 16007KT 10SM FEW055 SCT100 29/21 A2980 RMK AO2 SLP082 T02890206
KFAM 231856Z AUTO 16007KT 10SM BKN038 OVC050 28/20 A2981 RMK AO2 SLP085 T02780200
KFAM 231756Z AUTO 15006KT 6SM HZ BKN030 BKN036 27/19 A2982 RMK AO2 SLP088 T02670194 10272 20183 56009
KFAM 231656Z AUTO 28004KT 10SM CLR 25/19 A2982 RMK AO2 SLP091 T02500189
KFAM 231556Z AUTO 00000KT 10SM FEW038 23/17 A2983 RMK AO2 SLP095 T02280172
KFAM 231456Z AUTO 00000KT 10SM BKN040 22/18 A2985 RMK AO2 SLP100 T02170183 50003
KFAM 231356Z AUTO 20006KT 10SM CLR 21/18 A2985 RMK AO2 SLP102 T02060183
KFAM 231256Z AUTO 28003KT 10SM CLR 20/18 A2984 RMK AO2 SLP097 T02000178
KFAM 231156Z AUTO 00000KT 10SM CLR 18/17 A2984 RMK AO2 SLP096 T01830172 10183 20167 51013
KFAM 231056Z AUTO 00000KT 8SM CLR 17/16 A2982 RMK AO2 SLP088 T01670161
KFAM 230956Z AUTO 00000KT 7SM SCT046 BKN060 17/16 A2982 RMK AO2 SLP090 T01670161
KFAM 230856Z AUTO 00000KT 10SM FEW055 18/17 A2980 RMK AO2 SLP081 T01780172 58006
KFAM 230756Z AUTO 26003KT 10SM FEW035 18/17 A2981 RMK AO2 SLP085 T01780172
KFAM 230656Z AUTO 00000KT 10SM BKN041 OVC050 18/17 A2982 RMK AO2 SLP090 T01830172
KFAM 230556Z AUTO 00000KT 10SM FEW050 18/18 A2981 RMK AO2 SLP089 T01830178 10239 20183 402610172 51006
KFAM 230456Z AUTO 00000KT 10SM CLR 19/18 A2981 RMK AO2 SLP087 T01940178
KFAM 230356Z AUTO 00000KT 10SM OVC055 21/18 A2981 RMK AO2 SLP088 T02060183
KFAM 230256Z AUTO 00000KT 10SM BKN055 21/18 A2980 RMK AO2 SLP081 T02110178 53012
KFAM 230156Z AUTO 33005KT 10SM OVC055 22/18 A2978 RMK AO2 SLP075 T02170183
KFAM 230138Z AUTO 35004KT 10SM SCT022 BKN055 22/18 A2978 RMK AO2
KFAM 230129Z AUTO 33006KT 10SM BKN022 BKN060 22/18 A2977 RMK AO2
KFAM 230056Z AUTO 33006KT 10SM FEW024 22/18 A2977 RMK AO2 SLP071 T02220183
KFAM 230017Z AUTO 34007KT 10SM SCT028 BKN034 23/18 A2976 RMK AO2
KFAM 230010Z AUTO 34005KT 10SM BKN029 23/18 A2976 RMK AO2
KFAM 222356Z AUTO 34008KT 10SM FEW026 BKN031 24/18 A2976 RMK AO2 SLP070 60000 T02390183 10261 20222 55002
KFAM 222327Z AUTO 31009KT 10SM FEW023 BKN035 BKN044 24/19 A2975 RMK AO2
KFAM 222256Z AUTO 32008KT 10SM SCT023 BKN028 BKN035 24/19 A2976 RMK AO2 SLP069 T02390189
KFAM 222253Z AUTO 33006KT 10SM SCT023 BKN028 BKN035 24/19 A2976 RMK AO2
KFAM 222231Z AUTO 33006KT 10SM FEW001 BKN060 24/19 A2975 RMK AO2
KFAM 222156Z AUTO 33008KT 10SM FEW022 BKN060 OVC120 23/19 A2977 RMK AO2 RAE09B38E50 SLP071 P0000 T02280189
KFAM 222056Z AUTO 29008KT 10SM -RA FEW033 SCT049 BKN070 22/18 A2977 RMK AO2 RAB53 SLP071 P0000 60000 T02220178 55004
KFAM 221956Z AUTO 27008G15KT 10SM SCT035 SCT055 26/18 A2976 RMK AO2 SLP067 T02610178
KFAM 221935Z AUTO 29008KT 10SM FEW001 SCT033 SCT055 26/18 A2976 RMK AO2